sensor_id;sensor_type;location;lat;lon;timestamp;temperature;humidity
44695;DHT22;32845;59.422;17.930;2022-08-25T00:04:24;12.40;99.90
44695;DHT22;32845;59.422;17.930;2022-08-25T00:08:55;12.30;99.90
44695;DHT22;32845;59.422;17.930;2022-08-25T00:13:29;12.30;99.90
44695;DHT22;32845;59.422;17.930;2022-08-25T00:18:00;12.30;99.90
44695;DHT22;32845;59.422;17.930;2022-08-25T00:22:31;12.20;99.90
44695;DHT22;32845;59.422;17.930;2022-08-25T00:27:01;12.20;99.90
44695;DHT22;32845;59.422;17.930;2022-08-25T00:31:33;12.10;99.90
44695;DHT22;32845;59.422;17.930;2022-08-25T00:36:04;12.10;99.90
44695;DHT22;32845;59.422;17.930;2022-08-25T00:40:36;12.00;99.90
44695;DHT22;32845;59.422;17.930;2022-08-25T00:45:08;12.00;99.90
44695;DHT22;32845;59.422;17.930;2022-08-25T00:49:48;12.00;99.90
44695;DHT22;32845;59.422;17.930;2022-08-25T00:54:30;11.90;99.90
44695;DHT22;32845;59.422;17.930;2022-08-25T00:59:02;11.80;99.90
44695;DHT22;32845;59.422;17.930;2022-08-25T01:03:34;11.80;99.90
44695;DHT22;32845;59.422;17.930;2022-08-25T01:08:07;11.80;99.90
44695;DHT22;32845;59.422;17.930;2022-08-25T01:12:39;11.80;99.90
44695;DHT22;32845;59.422;17.930;2022-08-25T01:17:10;11.70;99.90
44695;DHT22;32845;59.422;17.930;2022-08-25T01:21:47;11.70;99.90
44695;DHT22;32845;59.422;17.930;2022-08-25T01:26:23;11.60;99.90
44695;DHT22;32845;59.422;17.930;2022-08-25T01:30:54;11.60;99.90
44695;DHT22;32845;59.422;17.930;2022-08-25T01:35:25;11.60;99.90
44695;DHT22;32845;59.422;17.930;2022-08-25T01:39:55;11.50;99.90
44695;DHT22;32845;59.422;17.930;2022-08-25T01:44:26;11.50;99.90
44695;DHT22;32845;59.422;17.930;2022-08-25T01:48:57;11.50;99.90
44695;DHT22;32845;59.422;17.930;2022-08-25T01:53:29;11.40;99.90
44695;DHT22;32845;59.422;17.930;2022-08-25T01:58:00;11.40;99.90
44695;DHT22;32845;59.422;17.930;2022-08-25T02:02:35;11.30;99.90
44695;DHT22;32845;59.422;17.930;2022-08-25T02:07:08;11.30;99.90
44695;DHT22;32845;59.422;17.930;2022-08-25T02:11:41;11.30;99.90
44695;DHT22;32845;59.422;17.930;2022-08-25T02:16:17;11.20;99.90
44695;DHT22;32845;59.422;17.930;2022-08-25T02:20:50;11.20;99.90
44695;DHT22;32845;59.422;17.930;2022-08-25T02:25:20;11.20;99.90
44695;DHT22;32845;59.422;17.930;2022-08-25T02:29:51;11.10;99.90
44695;DHT22;32845;59.422;17.930;2022-08-25T02:34:22;11.10;99.90
44695;DHT22;32845;59.422;17.930;2022-08-25T02:38:53;11.10;99.90
44695;DHT22;32845;59.422;17.930;2022-08-25T02:43:25;11.10;99.90
44695;DHT22;32845;59.422;17.930;2022-08-25T02:47:56;11.00;99.90
44695;DHT22;32845;59.422;17.930;2022-08-25T02:52:27;11.00;99.90
44695;DHT22;32845;59.422;17.930;2022-08-25T02:56:57;10.90;99.90
44695;DHT22;32845;59.422;17.930;2022-08-25T03:01:30;10.90;99.90
44695;DHT22;32845;59.422;17.930;2022-08-25T03:06:02;10.90;99.90
44695;DHT22;32845;59.422;17.930;2022-08-25T03:10:33;10.80;99.90
44695;DHT22;32845;59.422;17.930;2022-08-25T03:15:04;10.80;99.90
44695;DHT22;32845;59.422;17.930;2022-08-25T03:19:35;10.70;99.90
44695;DHT22;32845;59.422;17.930;2022-08-25T03:24:06;10.80;99.90
44695;DHT22;32845;59.422;17.930;2022-08-25T03:28:36;10.70;99.90
44695;DHT22;32845;59.422;17.930;2022-08-25T03:33:08;10.70;99.90
44695;DHT22;32845;59.422;17.930;2022-08-25T03:37:39;10.70;99.90
44695;DHT22;32845;59.422;17.930;2022-08-25T03:42:15;10.70;99.90
44695;DHT22;32845;59.422;17.930;2022-08-25T03:46:47;10.60;99.90
44695;DHT22;32845;59.422;17.930;2022-08-25T03:51:23;10.70;99.90
44695;DHT22;32845;59.422;17.930;2022-08-25T03:55:54;10.70;99.90
44695;DHT22;32845;59.422;17.930;2022-08-25T04:00:26;10.70;99.90
44695;DHT22;32845;59.422;17.930;2022-08-25T04:04:57;10.70;99.90
44695;DHT22;32845;59.422;17.930;2022-08-25T04:09:27;10.60;99.90
44695;DHT22;32845;59.422;17.930;2022-08-25T04:13:59;10.60;99.90
44695;DHT22;32845;59.422;17.930;2022-08-25T04:18:31;10.70;99.90
44695;DHT22;32845;59.422;17.930;2022-08-25T04:23:03;10.70;99.90
44695;DHT22;32845;59.422;17.930;2022-08-25T04:27:35;10.70;99.90
44695;DHT22;32845;59.422;17.930;2022-08-25T04:32:06;10.70;99.90
44695;DHT22;32845;59.422;17.930;2022-08-25T04:36:37;10.80;99.90
44695;DHT22;32845;59.422;17.930;2022-08-25T04:41:09;10.90;99.90
44695;DHT22;32845;59.422;17.930;2022-08-25T04:45:41;11.00;99.90
44695;DHT22;32845;59.422;17.930;2022-08-25T04:50:11;11.10;99.90
44695;DHT22;32845;59.422;17.930;2022-08-25T04:54:42;11.20;99.90
44695;DHT22;32845;59.422;17.930;2022-08-25T04:59:15;11.30;99.90
44695;DHT22;32845;59.422;17.930;2022-08-25T05:03:47;11.40;99.90
44695;DHT22;32845;59.422;17.930;2022-08-25T05:08:18;11.50;99.90
44695;DHT22;32845;59.422;17.930;2022-08-25T05:12:48;11.60;99.90
44695;DHT22;32845;59.422;17.930;2022-08-25T05:17:19;11.70;99.90
44695;DHT22;32845;59.422;17.930;2022-08-25T05:21:51;11.80;99.90
44695;DHT22;32845;59.422;17.930;2022-08-25T05:26:23;11.90;99.90
44695;DHT22;32845;59.422;17.930;2022-08-25T05:30:57;12.10;99.90
44695;DHT22;32845;59.422;17.930;2022-08-25T05:35:28;12.20;99.90
44695;DHT22;32845;59.422;17.930;2022-08-25T05:39:59;12.40;99.90
44695;DHT22;32845;59.422;17.930;2022-08-25T05:44:30;12.50;99.90
44695;DHT22;32845;59.422;17.930;2022-08-25T05:49:01;12.70;99.90
44695;DHT22;32845;59.422;17.930;2022-08-25T05:53:32;12.80;99.90
44695;DHT22;32845;59.422;17.930;2022-08-25T05:58:03;13.00;99.90
44695;DHT22;32845;59.422;17.930;2022-08-25T06:02:35;13.20;99.90
44695;DHT22;32845;59.422;17.930;2022-08-25T06:07:17;13.30;99.90
44695;DHT22;32845;59.422;17.930;2022-08-25T06:11:49;13.60;99.90
44695;DHT22;32845;59.422;17.930;2022-08-25T06:16:19;13.70;99.90
44695;DHT22;32845;59.422;17.930;2022-08-25T06:20:50;14.00;99.90
44695;DHT22;32845;59.422;17.930;2022-08-25T06:25:23;14.20;99.90
44695;DHT22;32845;59.422;17.930;2022-08-25T06:29:53;14.40;99.90
44695;DHT22;32845;59.422;17.930;2022-08-25T06:34:24;14.60;99.90
44695;DHT22;32845;59.422;17.930;2022-08-25T06:38:55;14.80;99.90
44695;DHT22;32845;59.422;17.930;2022-08-25T06:43:25;15.00;99.90
44695;DHT22;32845;59.422;17.930;2022-08-25T06:47:57;15.10;99.90
44695;DHT22;32845;59.422;17.930;2022-08-25T06:52:28;15.30;99.90
44695;DHT22;32845;59.422;17.930;2022-08-25T06:56:59;15.50;99.90
44695;DHT22;32845;59.422;17.930;2022-08-25T07:01:31;15.60;99.90
44695;DHT22;32845;59.422;17.930;2022-08-25T07:06:02;15.80;99.90
44695;DHT22;32845;59.422;17.930;2022-08-25T07:10:32;15.90;99.90
44695;DHT22;32845;59.422;17.930;2022-08-25T07:15:04;16.00;99.90
44695;DHT22;32845;59.422;17.930;2022-08-25T07:19:35;16.20;99.90
44695;DHT22;32845;59.422;17.930;2022-08-25T07:24:11;16.40;99.90
44695;DHT22;32845;59.422;17.930;2022-08-25T07:28:42;16.50;99.90
44695;DHT22;32845;59.422;17.930;2022-08-25T07:33:13;16.60;99.90
44695;DHT22;32845;59.422;17.930;2022-08-25T07:37:46;16.80;99.90
44695;DHT22;32845;59.422;17.930;2022-08-25T07:42:17;16.90;99.90
44695;DHT22;32845;59.422;17.930;2022-08-25T07:46:48;17.00;99.90
44695;DHT22;32845;59.422;17.930;2022-08-25T07:51:19;17.20;99.90
44695;DHT22;32845;59.422;17.930;2022-08-25T07:55:49;17.40;99.90
44695;DHT22;32845;59.422;17.930;2022-08-25T08:00:20;17.50;99.90
44695;DHT22;32845;59.422;17.930;2022-08-25T08:04:52;17.60;99.90
44695;DHT22;32845;59.422;17.930;2022-08-25T08:09:23;17.70;99.90
44695;DHT22;32845;59.422;17.930;2022-08-25T08:13:55;17.70;99.90
44695;DHT22;32845;59.422;17.930;2022-08-25T08:18:26;17.80;99.90
44695;DHT22;32845;59.422;17.930;2022-08-25T08:22:57;17.90;99.90
44695;DHT22;32845;59.422;17.930;2022-08-25T08:27:27;18.10;99.90
44695;DHT22;32845;59.422;17.930;2022-08-25T08:31:58;18.20;99.90
44695;DHT22;32845;59.422;17.930;2022-08-25T08:36:29;18.30;99.90
44695;DHT22;32845;59.422;17.930;2022-08-25T08:46:48;18.60;99.90
44695;DHT22;32845;59.422;17.930;2022-08-25T08:51:32;18.90;99.90
44695;DHT22;32845;59.422;17.930;2022-08-25T08:56:08;19.20;99.90
44695;DHT22;32845;59.422;17.930;2022-08-25T09:00:49;19.40;99.90
44695;DHT22;32845;59.422;17.930;2022-08-25T09:05:24;19.60;99.90
44695;DHT22;32845;59.422;17.930;2022-08-25T09:09:56;19.80;99.90
44695;DHT22;32845;59.422;17.930;2022-08-25T09:29:09;20.40;99.90
44695;DHT22;32845;59.422;17.930;2022-08-25T09:33:41;20.60;99.90
44695;DHT22;32845;59.422;17.930;2022-08-25T09:38:12;20.80;99.90
44695;DHT22;32845;59.422;17.930;2022-08-25T09:42:52;20.90;99.90
44695;DHT22;32845;59.422;17.930;2022-08-25T09:47:25;21.10;99.90
44695;DHT22;32845;59.422;17.930;2022-08-25T09:57:01;21.30;99.90
44695;DHT22;32845;59.422;17.930;2022-08-25T10:01:57;21.40;99.90
44695;DHT22;32845;59.422;17.930;2022-08-25T10:06:34;21.60;99.90
44695;DHT22;32845;59.422;17.930;2022-08-25T10:11:10;21.70;99.90
44695;DHT22;32845;59.422;17.930;2022-08-25T10:15:43;21.90;99.90
44695;DHT22;32845;59.422;17.930;2022-08-25T10:24:51;22.10;99.90
44695;DHT22;32845;59.422;17.930;2022-08-25T10:29:30;22.20;99.90
44695;DHT22;32845;59.422;17.930;2022-08-25T10:38:56;22.70;99.90
44695;DHT22;32845;59.422;17.930;2022-08-25T10:43:38;22.80;99.90
44695;DHT22;32845;59.422;17.930;2022-08-25T10:48:42;23.00;99.90
44695;DHT22;32845;59.422;17.930;2022-08-25T10:58:42;23.60;99.50
44695;DHT22;32845;59.422;17.930;2022-08-25T11:08:33;24.30;97.60
44695;DHT22;32845;59.422;17.930;2022-08-25T11:13:14;24.70;94.70
44695;DHT22;32845;59.422;17.930;2022-08-25T11:17:55;25.20;95.10
44695;DHT22;32845;59.422;17.930;2022-08-25T11:22:43;25.60;92.30
44695;DHT22;32845;59.422;17.930;2022-08-25T11:27:25;26.10;92.40
44695;DHT22;32845;59.422;17.930;2022-08-25T11:31:58;26.70;91.40
44695;DHT22;32845;59.422;17.930;2022-08-25T11:36:35;27.40;91.30
44695;DHT22;32845;59.422;17.930;2022-08-25T11:41:26;28.20;90.00
44695;DHT22;32845;59.422;17.930;2022-08-25T11:51:04;29.70;82.00
44695;DHT22;32845;59.422;17.930;2022-08-25T12:00:12;30.50;81.40
44695;DHT22;32845;59.422;17.930;2022-08-25T12:04:44;30.70;80.50
44695;DHT22;32845;59.422;17.930;2022-08-25T12:09:18;30.90;80.00
44695;DHT22;32845;59.422;17.930;2022-08-25T12:13:50;30.80;79.30
44695;DHT22;32845;59.422;17.930;2022-08-25T12:22:54;30.50;79.50
44695;DHT22;32845;59.422;17.930;2022-08-25T12:37:13;29.50;73.90
44695;DHT22;32845;59.422;17.930;2022-08-25T12:42:06;29.10;77.40
44695;DHT22;32845;59.422;17.930;2022-08-25T12:47:06;28.80;73.10
44695;DHT22;32845;59.422;17.930;2022-08-25T12:56:40;28.20;77.40
44695;DHT22;32845;59.422;17.930;2022-08-25T13:01:25;28.00;74.40
44695;DHT22;32845;59.422;17.930;2022-08-25T13:11:00;27.60;75.00
44695;DHT22;32845;59.422;17.930;2022-08-25T13:15:57;27.40;77.00
44695;DHT22;32845;59.422;17.930;2022-08-25T13:20:28;27.30;72.60
44695;DHT22;32845;59.422;17.930;2022-08-25T13:24:59;27.20;76.70
44695;DHT22;32845;59.422;17.930;2022-08-25T13:29:32;27.10;75.70
44695;DHT22;32845;59.422;17.930;2022-08-25T13:34:05;27.00;76.10
44695;DHT22;32845;59.422;17.930;2022-08-25T13:38:40;26.90;75.90
44695;DHT22;32845;59.422;17.930;2022-08-25T13:43:13;26.80;75.00
44695;DHT22;32845;59.422;17.930;2022-08-25T13:47:45;26.70;75.50
44695;DHT22;32845;59.422;17.930;2022-08-25T13:52:26;26.60;75.10
44695;DHT22;32845;59.422;17.930;2022-08-25T13:57:13;26.40;75.00
44695;DHT22;32845;59.422;17.930;2022-08-25T14:01:47;26.30;74.70
44695;DHT22;32845;59.422;17.930;2022-08-25T14:06:23;26.20;75.80
44695;DHT22;32845;59.422;17.930;2022-08-25T14:11:30;26.20;75.70
44695;DHT22;32845;59.422;17.930;2022-08-25T14:16:20;26.00;73.70
44695;DHT22;32845;59.422;17.930;2022-08-25T14:20:53;26.00;73.70
44695;DHT22;32845;59.422;17.930;2022-08-25T14:25:26;25.90;76.00
44695;DHT22;32845;59.422;17.930;2022-08-25T14:29:58;25.90;75.60
44695;DHT22;32845;59.422;17.930;2022-08-25T14:34:33;25.70;76.00
44695;DHT22;32845;59.422;17.930;2022-08-25T14:39:06;25.60;76.40
44695;DHT22;32845;59.422;17.930;2022-08-25T14:43:37;25.50;76.80
44695;DHT22;32845;59.422;17.930;2022-08-25T14:48:13;25.50;76.90
44695;DHT22;32845;59.422;17.930;2022-08-25T14:52:50;25.30;77.30
44695;DHT22;32845;59.422;17.930;2022-08-25T14:57:21;25.30;77.80
44695;DHT22;32845;59.422;17.930;2022-08-25T15:01:52;25.20;77.90
44695;DHT22;32845;59.422;17.930;2022-08-25T15:06:24;25.10;77.80
44695;DHT22;32845;59.422;17.930;2022-08-25T15:10:55;25.00;77.80
44695;DHT22;32845;59.422;17.930;2022-08-25T15:15:25;24.90;78.10
44695;DHT22;32845;59.422;17.930;2022-08-25T15:19:57;24.80;78.30
44695;DHT22;32845;59.422;17.930;2022-08-25T15:24:28;24.80;79.10
44695;DHT22;32845;59.422;17.930;2022-08-25T15:28:59;24.70;79.20
44695;DHT22;32845;59.422;17.930;2022-08-25T15:33:30;24.60;79.70
44695;DHT22;32845;59.422;17.930;2022-08-25T15:38:00;24.50;80.30
44695;DHT22;32845;59.422;17.930;2022-08-25T15:42:31;24.40;80.70
44695;DHT22;32845;59.422;17.930;2022-08-25T15:47:02;24.30;81.40
44695;DHT22;32845;59.422;17.930;2022-08-25T15:51:33;24.20;82.00
44695;DHT22;32845;59.422;17.930;2022-08-25T15:56:05;24.10;82.90
44695;DHT22;32845;59.422;17.930;2022-08-25T16:00:35;23.90;83.90
44695;DHT22;32845;59.422;17.930;2022-08-25T16:05:07;23.80;83.80
44695;DHT22;32845;59.422;17.930;2022-08-25T16:09:40;23.70;84.50
44695;DHT22;32845;59.422;17.930;2022-08-25T16:14:11;23.50;85.00
44695;DHT22;32845;59.422;17.930;2022-08-25T16:18:42;23.40;85.50
44695;DHT22;32845;59.422;17.930;2022-08-25T16:23:14;23.30;85.50
44695;DHT22;32845;59.422;17.930;2022-08-25T16:27:45;23.20;85.80
44695;DHT22;32845;59.422;17.930;2022-08-25T16:32:16;23.10;86.00
44695;DHT22;32845;59.422;17.930;2022-08-25T16:36:48;23.00;86.30
44695;DHT22;32845;59.422;17.930;2022-08-25T16:41:23;22.90;86.60
44695;DHT22;32845;59.422;17.930;2022-08-25T16:45:59;22.70;87.10
44695;DHT22;32845;59.422;17.930;2022-08-25T16:50:31;22.60;87.30
44695;DHT22;32845;59.422;17.930;2022-08-25T16:55:02;22.50;87.50
44695;DHT22;32845;59.422;17.930;2022-08-25T16:59:45;22.40;88.00
44695;DHT22;32845;59.422;17.930;2022-08-25T17:04:15;22.20;87.40
44695;DHT22;32845;59.422;17.930;2022-08-25T17:08:46;22.10;86.90
44695;DHT22;32845;59.422;17.930;2022-08-25T17:13:25;22.00;86.70
44695;DHT22;32845;59.422;17.930;2022-08-25T17:17:55;21.90;86.80
44695;DHT22;32845;59.422;17.930;2022-08-25T17:22:26;21.70;86.00
44695;DHT22;32845;59.422;17.930;2022-08-25T17:26:57;21.50;83.70
44695;DHT22;32845;59.422;17.930;2022-08-25T17:31:28;21.50;84.50
44695;DHT22;32845;59.422;17.930;2022-08-25T17:35:59;21.30;83.70
44695;DHT22;32845;59.422;17.930;2022-08-25T17:40:29;21.20;83.80
44695;DHT22;32845;59.422;17.930;2022-08-25T17:45:01;21.10;83.60
44695;DHT22;32845;59.422;17.930;2022-08-25T17:49:31;21.00;82.90
44695;DHT22;32845;59.422;17.930;2022-08-25T17:54:18;20.90;83.30
44695;DHT22;32845;59.422;17.930;2022-08-25T17:58:50;20.80;82.60
44695;DHT22;32845;59.422;17.930;2022-08-25T18:03:27;20.60;82.80
44695;DHT22;32845;59.422;17.930;2022-08-25T18:07:58;20.50;83.00
44695;DHT22;32845;59.422;17.930;2022-08-25T18:12:29;20.30;83.30
44695;DHT22;32845;59.422;17.930;2022-08-25T18:17:00;20.10;84.50
44695;DHT22;32845;59.422;17.930;2022-08-25T18:21:33;19.80;85.00
44695;DHT22;32845;59.422;17.930;2022-08-25T18:26:04;19.60;85.50
44695;DHT22;32845;59.422;17.930;2022-08-25T18:30:35;19.40;87.70
44695;DHT22;32845;59.422;17.930;2022-08-25T18:35:06;19.20;88.10
44695;DHT22;32845;59.422;17.930;2022-08-25T18:39:37;19.00;88.70
44695;DHT22;32845;59.422;17.930;2022-08-25T18:44:27;18.80;89.40
44695;DHT22;32845;59.422;17.930;2022-08-25T18:48:58;18.70;90.30
44695;DHT22;32845;59.422;17.930;2022-08-25T18:53:30;18.50;90.70
44695;DHT22;32845;59.422;17.930;2022-08-25T18:58:02;18.40;91.20
44695;DHT22;32845;59.422;17.930;2022-08-25T19:02:50;18.20;91.50
44695;DHT22;32845;59.422;17.930;2022-08-25T19:07:22;18.00;92.30
44695;DHT22;32845;59.422;17.930;2022-08-25T19:11:52;17.90;92.30
44695;DHT22;32845;59.422;17.930;2022-08-25T19:16:34;17.80;92.20
44695;DHT22;32845;59.422;17.930;2022-08-25T19:21:05;17.70;92.90
44695;DHT22;32845;59.422;17.930;2022-08-25T19:25:37;17.50;93.10
44695;DHT22;32845;59.422;17.930;2022-08-25T19:30:11;17.40;93.30
44695;DHT22;32845;59.422;17.930;2022-08-25T19:34:43;17.20;93.60
44695;DHT22;32845;59.422;17.930;2022-08-25T19:39:17;17.10;94.00
44695;DHT22;32845;59.422;17.930;2022-08-25T19:43:49;17.00;94.00
44695;DHT22;32845;59.422;17.930;2022-08-25T19:48:20;16.90;94.40
44695;DHT22;32845;59.422;17.930;2022-08-25T19:52:51;16.80;94.50
44695;DHT22;32845;59.422;17.930;2022-08-25T19:57:23;16.70;95.10
44695;DHT22;32845;59.422;17.930;2022-08-25T20:01:54;16.60;95.50
44695;DHT22;32845;59.422;17.930;2022-08-25T20:06:24;16.50;95.90
44695;DHT22;32845;59.422;17.930;2022-08-25T20:11:00;16.40;96.20
44695;DHT22;32845;59.422;17.930;2022-08-25T20:15:32;16.30;96.80
44695;DHT22;32845;59.422;17.930;2022-08-25T20:20:05;16.20;96.90
44695;DHT22;32845;59.422;17.930;2022-08-25T20:24:38;16.10;97.10
44695;DHT22;32845;59.422;17.930;2022-08-25T20:29:22;16.00;97.70
44695;DHT22;32845;59.422;17.930;2022-08-25T20:33:52;15.90;98.20
44695;DHT22;32845;59.422;17.930;2022-08-25T20:38:23;15.80;98.80
44695;DHT22;32845;59.422;17.930;2022-08-25T20:42:55;15.70;99.50
44695;DHT22;32845;59.422;17.930;2022-08-25T20:47:26;15.60;99.90
44695;DHT22;32845;59.422;17.930;2022-08-25T20:52:02;15.50;99.90
44695;DHT22;32845;59.422;17.930;2022-08-25T20:56:33;15.40;99.90
44695;DHT22;32845;59.422;17.930;2022-08-25T21:01:09;15.30;99.90
44695;DHT22;32845;59.422;17.930;2022-08-25T21:05:42;15.20;99.90
44695;DHT22;32845;59.422;17.930;2022-08-25T21:10:13;15.10;99.90
44695;DHT22;32845;59.422;17.930;2022-08-25T21:14:50;15.00;99.90
44695;DHT22;32845;59.422;17.930;2022-08-25T21:19:22;15.00;99.90
44695;DHT22;32845;59.422;17.930;2022-08-25T21:23:54;14.90;99.90
44695;DHT22;32845;59.422;17.930;2022-08-25T21:28:25;14.80;99.90
44695;DHT22;32845;59.422;17.930;2022-08-25T21:32:55;14.70;99.90
44695;DHT22;32845;59.422;17.930;2022-08-25T21:37:26;14.50;99.90
44695;DHT22;32845;59.422;17.930;2022-08-25T21:41:57;14.50;99.90
44695;DHT22;32845;59.422;17.930;2022-08-25T21:46:30;14.40;99.90
44695;DHT22;32845;59.422;17.930;2022-08-25T21:51:23;14.30;99.90
44695;DHT22;32845;59.422;17.930;2022-08-25T21:55:54;14.20;99.90
44695;DHT22;32845;59.422;17.930;2022-08-25T22:00:25;14.20;99.90
44695;DHT22;32845;59.422;17.930;2022-08-25T22:04:56;14.10;99.90
44695;DHT22;32845;59.422;17.930;2022-08-25T22:09:27;14.00;99.90
44695;DHT22;32845;59.422;17.930;2022-08-25T22:14:04;14.00;99.90
44695;DHT22;32845;59.422;17.930;2022-08-25T22:18:35;13.90;99.90
44695;DHT22;32845;59.422;17.930;2022-08-25T22:23:06;13.80;99.90
44695;DHT22;32845;59.422;17.930;2022-08-25T22:27:36;13.80;99.90
44695;DHT22;32845;59.422;17.930;2022-08-25T22:32:07;13.70;99.90
44695;DHT22;32845;59.422;17.930;2022-08-25T22:36:38;13.60;99.90
44695;DHT22;32845;59.422;17.930;2022-08-25T22:41:09;13.60;99.90
44695;DHT22;32845;59.422;17.930;2022-08-25T22:45:40;13.50;99.90
44695;DHT22;32845;59.422;17.930;2022-08-25T22:50:11;13.50;99.90
44695;DHT22;32845;59.422;17.930;2022-08-25T22:54:42;13.40;99.90
44695;DHT22;32845;59.422;17.930;2022-08-25T22:59:13;13.30;99.90
44695;DHT22;32845;59.422;17.930;2022-08-25T23:03:44;13.20;99.90
44695;DHT22;32845;59.422;17.930;2022-08-25T23:08:15;13.10;99.90
44695;DHT22;32845;59.422;17.930;2022-08-25T23:12:46;13.10;99.90
44695;DHT22;32845;59.422;17.930;2022-08-25T23:17:17;13.00;99.90
44695;DHT22;32845;59.422;17.930;2022-08-25T23:21:47;13.00;99.90
44695;DHT22;32845;59.422;17.930;2022-08-25T23:26:37;12.90;99.90
44695;DHT22;32845;59.422;17.930;2022-08-25T23:31:10;12.80;99.90
44695;DHT22;32845;59.422;17.930;2022-08-25T23:35:41;12.80;99.90
44695;DHT22;32845;59.422;17.930;2022-08-25T23:40:12;12.80;99.90
44695;DHT22;32845;59.422;17.930;2022-08-25T23:44:43;12.70;99.90
44695;DHT22;32845;59.422;17.930;2022-08-25T23:49:16;12.70;99.90
44695;DHT22;32845;59.422;17.930;2022-08-25T23:53:57;12.60;99.90
44695;DHT22;32845;59.422;17.930;2022-08-25T23:58:28;12.60;99.90
